sensor_id;sensor_type;location;lat;lon;timestamp;temperature;humidity
20204;DHT22;10261;49.010;12.034;2023-01-15T00:00:14;7.90;99.90
20204;DHT22;10261;49.010;12.034;2023-01-15T00:01:22;8.00;99.90
20204;DHT22;10261;49.010;12.034;2023-01-15T00:02:25;8.00;99.90
20204;DHT22;10261;49.010;12.034;2023-01-15T00:03:28;8.00;99.90
20204;DHT22;10261;49.010;12.034;2023-01-15T00:04:31;8.00;99.90
20204;DHT22;10261;49.010;12.034;2023-01-15T00:05:34;8.00;99.90
20204;DHT22;10261;49.010;12.034;2023-01-15T00:06:39;8.10;99.90
20204;DHT22;10261;49.010;12.034;2023-01-15T00:07:41;8.10;99.90
20204;DHT22;10261;49.010;12.034;2023-01-15T00:08:44;8.00;99.90
20204;DHT22;10261;49.010;12.034;2023-01-15T00:09:47;8.10;99.90
20204;DHT22;10261;49.010;12.034;2023-01-15T00:10:51;8.00;99.90
20204;DHT22;10261;49.010;12.034;2023-01-15T00:11:53;8.10;99.90
20204;DHT22;10261;49.010;12.034;2023-01-15T00:12:57;8.10;99.90
20204;DHT22;10261;49.010;12.034;2023-01-15T00:14:00;8.00;99.90
20204;DHT22;10261;49.010;12.034;2023-01-15T00:15:03;8.00;99.90
20204;DHT22;10261;49.010;12.034;2023-01-15T00:16:07;8.10;99.90
20204;DHT22;10261;49.010;12.034;2023-01-15T00:17:10;8.10;99.90
20204;DHT22;10261;49.010;12.034;2023-01-15T00:18:12;8.20;99.90
20204;DHT22;10261;49.010;12.034;2023-01-15T00:19:15;8.10;99.90
20204;DHT22;10261;49.010;12.034;2023-01-15T00:20:17;8.00;99.90
20204;DHT22;10261;49.010;12.034;2023-01-15T00:21:20;8.00;99.90
20204;DHT22;10261;49.010;12.034;2023-01-15T00:22:22;8.00;99.90
20204;DHT22;10261;49.010;12.034;2023-01-15T00:23:25;8.00;99.90
20204;DHT22;10261;49.010;12.034;2023-01-15T00:24:46;8.00;99.90
20204;DHT22;10261;49.010;12.034;2023-01-15T00:26:09;7.90;99.90
20204;DHT22;10261;49.010;12.034;2023-01-15T00:27:32;7.90;99.90
20204;DHT22;10261;49.010;12.034;2023-01-15T00:28:42;7.90;99.90
20204;DHT22;10261;49.010;12.034;2023-01-15T00:29:44;7.90;99.90
20204;DHT22;10261;49.010;12.034;2023-01-15T00:30:47;7.90;99.90
20204;DHT22;10261;49.010;12.034;2023-01-15T00:31:55;7.90;99.90
20204;DHT22;10261;49.010;12.034;2023-01-15T00:32:59;7.90;99.90
20204;DHT22;10261;49.010;12.034;2023-01-15T00:34:02;8.00;99.90
20204;DHT22;10261;49.010;12.034;2023-01-15T00:35:05;8.00;99.90
20204;DHT22;10261;49.010;12.034;2023-01-15T00:36:08;8.00;99.90
20204;DHT22;10261;49.010;12.034;2023-01-15T00:37:10;8.00;99.90
20204;DHT22;10261;49.010;12.034;2023-01-15T00:38:13;8.00;99.90
20204;DHT22;10261;49.010;12.034;2023-01-15T00:39:16;8.00;99.90
20204;DHT22;10261;49.010;12.034;2023-01-15T00:40:19;8.00;99.90
20204;DHT22;10261;49.010;12.034;2023-01-15T00:41:22;8.00;99.90
20204;DHT22;10261;49.010;12.034;2023-01-15T00:42:24;8.00;99.90
20204;DHT22;10261;49.010;12.034;2023-01-15T00:43:28;8.00;99.90
20204;DHT22;10261;49.010;12.034;2023-01-15T00:44:31;8.00;99.90
20204;DHT22;10261;49.010;12.034;2023-01-15T00:45:34;8.00;99.90
20204;DHT22;10261;49.010;12.034;2023-01-15T00:46:36;7.90;99.90
20204;DHT22;10261;49.010;12.034;2023-01-15T00:47:41;7.90;99.90
20204;DHT22;10261;49.010;12.034;2023-01-15T00:48:43;7.90;99.90
20204;DHT22;10261;49.010;12.034;2023-01-15T00:49:46;7.90;99.90
20204;DHT22;10261;49.010;12.034;2023-01-15T00:50:48;8.00;99.90
20204;DHT22;10261;49.010;12.034;2023-01-15T00:51:51;8.00;99.90
20204;DHT22;10261;49.010;12.034;2023-01-15T00:52:54;7.90;99.90
20204;DHT22;10261;49.010;12.034;2023-01-15T00:53:56;8.00;99.90
20204;DHT22;10261;49.010;12.034;2023-01-15T00:54:59;8.00;99.90
20204;DHT22;10261;49.010;12.034;2023-01-15T00:56:01;8.00;99.90
20204;DHT22;10261;49.010;12.034;2023-01-15T00:57:04;8.00;99.90
20204;DHT22;10261;49.010;12.034;2023-01-15T00:58:06;8.00;99.90
20204;DHT22;10261;49.010;12.034;2023-01-15T00:59:09;8.10;99.90
20204;DHT22;10261;49.010;12.034;2023-01-15T01:00:13;7.90;99.90
20204;DHT22;10261;49.010;12.034;2023-01-15T01:01:16;7.90;99.90
20204;DHT22;10261;49.010;12.034;2023-01-15T01:02:18;8.00;99.90
20204;DHT22;10261;49.010;12.034;2023-01-15T01:03:22;8.00;99.90
20204;DHT22;10261;49.010;12.034;2023-01-15T01:04:24;8.00;99.90
20204;DHT22;10261;49.010;12.034;2023-01-15T01:05:27;8.00;99.90
20204;DHT22;10261;49.010;12.034;2023-01-15T01:06:29;8.00;99.90
20204;DHT22;10261;49.010;12.034;2023-01-15T01:07:32;8.00;99.90
20204;DHT22;10261;49.010;12.034;2023-01-15T01:08:34;8.00;99.90
20204;DHT22;10261;49.010;12.034;2023-01-15T01:09:37;8.00;99.90
20204;DHT22;10261;49.010;12.034;2023-01-15T01:10:39;8.00;99.90
20204;DHT22;10261;49.010;12.034;2023-01-15T01:11:42;8.00;99.90
20204;DHT22;10261;49.010;12.034;2023-01-15T01:12:45;8.00;99.90
20204;DHT22;10261;49.010;12.034;2023-01-15T01:13:49;8.00;99.90
20204;DHT22;10261;49.010;12.034;2023-01-15T01:14:52;8.00;99.90
20204;DHT22;10261;49.010;12.034;2023-01-15T01:15:55;8.00;99.90
20204;DHT22;10261;49.010;12.034;2023-01-15T01:16:58;8.10;99.90
20204;DHT22;10261;49.010;12.034;2023-01-15T01:18:01;8.20;99.90
20204;DHT22;10261;49.010;12.034;2023-01-15T01:19:07;8.10;99.90
20204;DHT22;10261;49.010;12.034;2023-01-15T01:20:11;8.10;99.90
20204;DHT22;10261;49.010;12.034;2023-01-15T01:21:15;8.10;99.90
20204;DHT22;10261;49.010;12.034;2023-01-15T01:22:17;8.10;99.90
20204;DHT22;10261;49.010;12.034;2023-01-15T01:23:22;8.00;99.90
20204;DHT22;10261;49.010;12.034;2023-01-15T01:24:25;8.10;99.90
20204;DHT22;10261;49.010;12.034;2023-01-15T01:25:28;8.10;99.90
20204;DHT22;10261;49.010;12.034;2023-01-15T01:26:30;8.10;99.90
20204;DHT22;10261;49.010;12.034;2023-01-15T01:27:33;8.00;99.90
20204;DHT22;10261;49.010;12.034;2023-01-15T01:28:35;8.00;99.90
20204;DHT22;10261;49.010;12.034;2023-01-15T01:29:38;8.00;99.90
20204;DHT22;10261;49.010;12.034;2023-01-15T01:30:40;7.90;99.90
20204;DHT22;10261;49.010;12.034;2023-01-15T01:31:45;8.00;99.90
20204;DHT22;10261;49.010;12.034;2023-01-15T01:32:47;8.00;99.90
20204;DHT22;10261;49.010;12.034;2023-01-15T01:33:51;8.00;99.90
20204;DHT22;10261;49.010;12.034;2023-01-15T01:34:53;8.10;99.90
20204;DHT22;10261;49.010;12.034;2023-01-15T01:35:56;8.10;99.90
20204;DHT22;10261;49.010;12.034;2023-01-15T01:36:58;8.10;99.90
20204;DHT22;10261;49.010;12.034;2023-01-15T01:38:01;8.10;99.90
20204;DHT22;10261;49.010;12.034;2023-01-15T01:39:06;8.10;99.90
20204;DHT22;10261;49.010;12.034;2023-01-15T01:40:10;8.10;99.90
20204;DHT22;10261;49.010;12.034;2023-01-15T01:41:13;8.20;99.90
20204;DHT22;10261;49.010;12.034;2023-01-15T01:42:16;8.20;99.90
20204;DHT22;10261;49.010;12.034;2023-01-15T01:43:21;8.20;99.90
20204;DHT22;10261;49.010;12.034;2023-01-15T01:45:06;8.20;99.90
20204;DHT22;10261;49.010;12.034;2023-01-15T01:46:09;8.10;99.90
20204;DHT22;10261;49.010;12.034;2023-01-15T01:47:14;8.10;99.90
20204;DHT22;10261;49.010;12.034;2023-01-15T01:48:22;8.10;99.90
20204;DHT22;10261;49.010;12.034;2023-01-15T01:49:26;8.10;99.90
20204;DHT22;10261;49.010;12.034;2023-01-15T01:50:30;8.10;99.90
20204;DHT22;10261;49.010;12.034;2023-01-15T01:51:38;8.10;99.90
20204;DHT22;10261;49.010;12.034;2023-01-15T01:52:44;8.10;99.90
20204;DHT22;10261;49.010;12.034;2023-01-15T01:53:48;8.20;99.90
20204;DHT22;10261;49.010;12.034;2023-01-15T01:54:51;8.10;99.90
20204;DHT22;10261;49.010;12.034;2023-01-15T01:55:55;8.10;99.90
20204;DHT22;10261;49.010;12.034;2023-01-15T01:56:59;8.20;99.90
20204;DHT22;10261;49.010;12.034;2023-01-15T01:58:03;8.30;99.90
20204;DHT22;10261;49.010;12.034;2023-01-15T01:59:08;8.20;99.90
20204;DHT22;10261;49.010;12.034;2023-01-15T02:00:12;8.20;99.90
20204;DHT22;10261;49.010;12.034;2023-01-15T02:01:16;8.10;99.90
20204;DHT22;10261;49.010;12.034;2023-01-15T02:02:21;8.10;99.90
20204;DHT22;10261;49.010;12.034;2023-01-15T02:03:26;8.10;99.90
20204;DHT22;10261;49.010;12.034;2023-01-15T02:04:32;8.10;99.90
20204;DHT22;10261;49.010;12.034;2023-01-15T02:05:38;8.20;99.90
20204;DHT22;10261;49.010;12.034;2023-01-15T02:06:42;8.10;99.90
20204;DHT22;10261;49.010;12.034;2023-01-15T02:07:44;8.10;99.90
20204;DHT22;10261;49.010;12.034;2023-01-15T02:08:47;8.10;99.90
20204;DHT22;10261;49.010;12.034;2023-01-15T02:09:49;8.10;99.90
20204;DHT22;10261;49.010;12.034;2023-01-15T02:10:54;8.10;99.90
20204;DHT22;10261;49.010;12.034;2023-01-15T02:12:00;8.10;99.90
20204;DHT22;10261;49.010;12.034;2023-01-15T02:13:10;8.10;99.90
20204;DHT22;10261;49.010;12.034;2023-01-15T02:14:18;8.10;99.90
20204;DHT22;10261;49.010;12.034;2023-01-15T02:15:27;8.10;99.90
20204;DHT22;10261;49.010;12.034;2023-01-15T02:16:36;8.20;99.90
20204;DHT22;10261;49.010;12.034;2023-01-15T02:17:48;8.10;99.90
20204;DHT22;10261;49.010;12.034;2023-01-15T02:18:59;8.10;99.90
20204;DHT22;10261;49.010;12.034;2023-01-15T02:20:22;8.10;99.90
20204;DHT22;10261;49.010;12.034;2023-01-15T02:21:37;8.10;99.90
20204;DHT22;10261;49.010;12.034;2023-01-15T02:22:56;8.00;99.90
20204;DHT22;10261;49.010;12.034;2023-01-15T02:24:08;8.10;99.90
20204;DHT22;10261;49.010;12.034;2023-01-15T02:25:16;8.10;99.90
20204;DHT22;10261;49.010;12.034;2023-01-15T02:26:48;8.10;99.90
20204;DHT22;10261;49.010;12.034;2023-01-15T02:27:55;8.10;99.90
20204;DHT22;10261;49.010;12.034;2023-01-15T02:29:00;8.10;99.90
20204;DHT22;10261;49.010;12.034;2023-01-15T02:30:06;8.10;99.90
20204;DHT22;10261;49.010;12.034;2023-01-15T02:31:14;8.10;99.90
20204;DHT22;10261;49.010;12.034;2023-01-15T02:32:23;8.00;99.90
20204;DHT22;10261;49.010;12.034;2023-01-15T02:33:32;8.10;99.90
20204;DHT22;10261;49.010;12.034;2023-01-15T02:34:40;8.10;99.90
20204;DHT22;10261;49.010;12.034;2023-01-15T02:35:49;8.10;99.90
20204;DHT22;10261;49.010;12.034;2023-01-15T02:37:00;8.10;99.90
20204;DHT22;10261;49.010;12.034;2023-01-15T02:38:06;8.00;99.90
20204;DHT22;10261;49.010;12.034;2023-01-15T02:39:12;8.00;99.90
20204;DHT22;10261;49.010;12.034;2023-01-15T02:40:18;8.00;99.90
20204;DHT22;10261;49.010;12.034;2023-01-15T02:41:25;7.90;99.90
20204;DHT22;10261;49.010;12.034;2023-01-15T02:42:33;8.00;99.90
20204;DHT22;10261;49.010;12.034;2023-01-15T02:43:36;7.90;99.90
20204;DHT22;10261;49.010;12.034;2023-01-15T02:44:44;7.90;99.90
20204;DHT22;10261;49.010;12.034;2023-01-15T02:45:50;8.00;99.90
20204;DHT22;10261;49.010;12.034;2023-01-15T02:46:54;8.00;99.90
20204;DHT22;10261;49.010;12.034;2023-01-15T02:48:01;8.00;99.90
20204;DHT22;10261;49.010;12.034;2023-01-15T02:49:07;8.00;99.90
20204;DHT22;10261;49.010;12.034;2023-01-15T02:50:13;8.00;99.90
20204;DHT22;10261;49.010;12.034;2023-01-15T02:51:20;8.00;99.90
20204;DHT22;10261;49.010;12.034;2023-01-15T02:52:27;7.90;99.90
20204;DHT22;10261;49.010;12.034;2023-01-15T02:53:33;8.00;99.90
20204;DHT22;10261;49.010;12.034;2023-01-15T02:54:52;8.00;99.90
20204;DHT22;10261;49.010;12.034;2023-01-15T02:56:02;8.00;99.90
20204;DHT22;10261;49.010;12.034;2023-01-15T02:57:06;8.00;99.90
20204;DHT22;10261;49.010;12.034;2023-01-15T02:58:16;8.00;99.90
20204;DHT22;10261;49.010;12.034;2023-01-15T02:59:22;8.00;99.90
20204;DHT22;10261;49.010;12.034;2023-01-15T03:00:29;8.00;99.90
20204;DHT22;10261;49.010;12.034;2023-01-15T03:01:35;8.00;99.90
20204;DHT22;10261;49.010;12.034;2023-01-15T03:02:44;7.90;99.90
20204;DHT22;10261;49.010;12.034;2023-01-15T03:03:51;8.00;99.90
20204;DHT22;10261;49.010;12.034;2023-01-15T03:04:59;8.00;99.90
20204;DHT22;10261;49.010;12.034;2023-01-15T03:06:06;8.00;99.90
20204;DHT22;10261;49.010;12.034;2023-01-15T03:07:15;8.00;99.90
20204;DHT22;10261;49.010;12.034;2023-01-15T03:08:19;8.00;99.90
20204;DHT22;10261;49.010;12.034;2023-01-15T03:09:23;8.00;99.90
20204;DHT22;10261;49.010;12.034;2023-01-15T03:10:31;8.00;99.90
20204;DHT22;10261;49.010;12.034;2023-01-15T03:11:43;8.00;99.90
20204;DHT22;10261;49.010;12.034;2023-01-15T03:12:46;8.00;99.90
20204;DHT22;10261;49.010;12.034;2023-01-15T03:14:07;8.00;99.90
20204;DHT22;10261;49.010;12.034;2023-01-15T03:15:16;8.00;99.90
20204;DHT22;10261;49.010;12.034;2023-01-15T03:16:45;7.90;99.90
20204;DHT22;10261;49.010;12.034;2023-01-15T03:17:52;8.00;99.90
20204;DHT22;10261;49.010;12.034;2023-01-15T03:19:03;8.00;99.90
20204;DHT22;10261;49.010;12.034;2023-01-15T03:20:11;8.00;99.90
20204;DHT22;10261;49.010;12.034;2023-01-15T03:21:21;7.90;99.90
20204;DHT22;10261;49.010;12.034;2023-01-15T03:22:27;8.00;99.90
20204;DHT22;10261;49.010;12.034;2023-01-15T03:23:35;7.90;99.90
20204;DHT22;10261;49.010;12.034;2023-01-15T03:24:41;8.00;99.90
20204;DHT22;10261;49.010;12.034;2023-01-15T03:25:47;8.00;99.90
20204;DHT22;10261;49.010;12.034;2023-01-15T03:26:51;8.00;99.90
20204;DHT22;10261;49.010;12.034;2023-01-15T03:27:57;8.00;99.90
20204;DHT22;10261;49.010;12.034;2023-01-15T03:29:01;8.10;99.90
20204;DHT22;10261;49.010;12.034;2023-01-15T03:30:11;8.00;99.90
20204;DHT22;10261;49.010;12.034;2023-01-15T03:31:14;8.00;99.90
20204;DHT22;10261;49.010;12.034;2023-01-15T03:32:18;8.00;99.90
20204;DHT22;10261;49.010;12.034;2023-01-15T03:33:20;8.00;99.90
20204;DHT22;10261;49.010;12.034;2023-01-15T03:34:24;8.00;99.90
20204;DHT22;10261;49.010;12.034;2023-01-15T03:35:44;8.00;99.90
20204;DHT22;10261;49.010;12.034;2023-01-15T03:36:48;8.00;99.90
20204;DHT22;10261;49.010;12.034;2023-01-15T03:37:51;8.10;99.90
20204;DHT22;10261;49.010;12.034;2023-01-15T03:38:54;8.00;99.90
20204;DHT22;10261;49.010;12.034;2023-01-15T03:39:58;8.20;99.90
20204;DHT22;10261;49.010;12.034;2023-01-15T03:41:11;8.20;99.90
20204;DHT22;10261;49.010;12.034;2023-01-15T03:42:22;8.00;99.90
20204;DHT22;10261;49.010;12.034;2023-01-15T03:43:36;8.10;99.90
20204;DHT22;10261;49.010;12.034;2023-01-15T03:44:50;8.10;99.90
20204;DHT22;10261;49.010;12.034;2023-01-15T03:45:58;8.00;99.90
20204;DHT22;10261;49.010;12.034;2023-01-15T03:47:08;8.00;99.90
20204;DHT22;10261;49.010;12.034;2023-01-15T03:48:20;8.10;99.90
20204;DHT22;10261;49.010;12.034;2023-01-15T03:49:32;8.10;99.90
20204;DHT22;10261;49.010;12.034;2023-01-15T03:50:40;8.10;99.90
20204;DHT22;10261;49.010;12.034;2023-01-15T03:51:49;8.10;99.90
20204;DHT22;10261;49.010;12.034;2023-01-15T03:53:00;8.10;99.90
20204;DHT22;10261;49.010;12.034;2023-01-15T03:54:10;8.10;99.90
20204;DHT22;10261;49.010;12.034;2023-01-15T03:55:17;8.10;99.90
20204;DHT22;10261;49.010;12.034;2023-01-15T03:56:26;8.10;99.90
20204;DHT22;10261;49.010;12.034;2023-01-15T03:57:35;8.10;99.90
20204;DHT22;10261;49.010;12.034;2023-01-15T03:58:41;8.10;99.90
20204;DHT22;10261;49.010;12.034;2023-01-15T03:59:49;8.10;99.90
20204;DHT22;10261;49.010;12.034;2023-01-15T04:00:54;8.10;99.90
20204;DHT22;10261;49.010;12.034;2023-01-15T04:02:01;8.10;99.90
20204;DHT22;10261;49.010;12.034;2023-01-15T04:03:07;8.10;99.90
20204;DHT22;10261;49.010;12.034;2023-01-15T04:04:12;8.10;99.90
20204;DHT22;10261;49.010;12.034;2023-01-15T04:05:15;8.10;99.90
20204;DHT22;10261;49.010;12.034;2023-01-15T04:06:19;8.10;99.90
20204;DHT22;10261;49.010;12.034;2023-01-15T04:07:23;8.10;99.90
20204;DHT22;10261;49.010;12.034;2023-01-15T04:08:29;8.10;99.90
20204;DHT22;10261;49.010;12.034;2023-01-15T04:09:36;8.10;99.90
20204;DHT22;10261;49.010;12.034;2023-01-15T04:10:50;8.10;99.90
20204;DHT22;10261;49.010;12.034;2023-01-15T04:11:53;8.10;99.90
20204;DHT22;10261;49.010;12.034;2023-01-15T04:12:59;8.10;99.90
20204;DHT22;10261;49.010;12.034;2023-01-15T04:14:01;8.00;99.90
20204;DHT22;10261;49.010;12.034;2023-01-15T04:15:05;8.00;99.90
20204;DHT22;10261;49.010;12.034;2023-01-15T04:16:08;8.00;99.90
20204;DHT22;10261;49.010;12.034;2023-01-15T04:17:12;8.00;99.90
20204;DHT22;10261;49.010;12.034;2023-01-15T04:18:14;8.00;99.90
20204;DHT22;10261;49.010;12.034;2023-01-15T04:19:17;8.00;99.90
20204;DHT22;10261;49.010;12.034;2023-01-15T04:20:19;8.10;99.90
20204;DHT22;10261;49.010;12.034;2023-01-15T04:21:23;8.10;99.90
20204;DHT22;10261;49.010;12.034;2023-01-15T04:22:25;7.70;99.90
20204;DHT22;10261;49.010;12.034;2023-01-15T04:23:28;7.40;99.90
20204;DHT22;10261;49.010;12.034;2023-01-15T04:24:30;7.60;99.90
20204;DHT22;10261;49.010;12.034;2023-01-15T04:25:33;7.70;99.90
20204;DHT22;10261;49.010;12.034;2023-01-15T04:26:35;7.80;99.90
20204;DHT22;10261;49.010;12.034;2023-01-15T04:27:37;7.90;99.90
20204;DHT22;10261;49.010;12.034;2023-01-15T04:28:39;7.90;99.90
20204;DHT22;10261;49.010;12.034;2023-01-15T04:29:42;7.90;99.90
20204;DHT22;10261;49.010;12.034;2023-01-15T04:30:50;8.00;99.90
20204;DHT22;10261;49.010;12.034;2023-01-15T04:31:53;8.00;99.90
20204;DHT22;10261;49.010;12.034;2023-01-15T04:32:59;8.10;99.90
20204;DHT22;10261;49.010;12.034;2023-01-15T04:34:02;8.10;99.90
20204;DHT22;10261;49.010;12.034;2023-01-15T04:35:05;8.10;99.90
20204;DHT22;10261;49.010;12.034;2023-01-15T04:36:09;8.10;99.90
20204;DHT22;10261;49.010;12.034;2023-01-15T04:37:12;8.10;99.90
20204;DHT22;10261;49.010;12.034;2023-01-15T04:38:14;8.10;99.90
20204;DHT22;10261;49.010;12.034;2023-01-15T04:39:18;8.10;99.90
20204;DHT22;10261;49.010;12.034;2023-01-15T04:40:20;8.20;99.90
20204;DHT22;10261;49.010;12.034;2023-01-15T04:41:37;8.20;99.90
20204;DHT22;10261;49.010;12.034;2023-01-15T04:43:00;8.20;99.90
20204;DHT22;10261;49.010;12.034;2023-01-15T04:44:21;8.20;99.90
20204;DHT22;10261;49.010;12.034;2023-01-15T04:45:28;8.10;99.90
20204;DHT22;10261;49.010;12.034;2023-01-15T04:46:30;8.20;99.90
20204;DHT22;10261;49.010;12.034;2023-01-15T04:47:33;8.20;99.90
20204;DHT22;10261;49.010;12.034;2023-01-15T04:48:37;8.20;99.90
20204;DHT22;10261;49.010;12.034;2023-01-15T04:49:40;8.10;99.90
20204;DHT22;10261;49.010;12.034;2023-01-15T04:50:42;8.10;99.90
20204;DHT22;10261;49.010;12.034;2023-01-15T04:51:46;8.10;99.90
20204;DHT22;10261;49.010;12.034;2023-01-15T04:52:49;8.10;99.90
20204;DHT22;10261;49.010;12.034;2023-01-15T04:53:52;8.10;99.90
20204;DHT22;10261;49.010;12.034;2023-01-15T04:54:54;8.10;99.90
20204;DHT22;10261;49.010;12.034;2023-01-15T04:55:59;8.10;99.90
20204;DHT22;10261;49.010;12.034;2023-01-15T04:57:02;8.00;99.90
20204;DHT22;10261;49.010;12.034;2023-01-15T04:58:05;8.00;99.90
20204;DHT22;10261;49.010;12.034;2023-01-15T04:59:07;8.00;99.90
20204;DHT22;10261;49.010;12.034;2023-01-15T05:00:11;8.00;99.90
20204;DHT22;10261;49.010;12.034;2023-01-15T05:01:15;8.00;99.90
20204;DHT22;10261;49.010;12.034;2023-01-15T05:02:18;8.00;99.90
20204;DHT22;10261;49.010;12.034;2023-01-15T05:03:21;8.00;99.90
20204;DHT22;10261;49.010;12.034;2023-01-15T05:04:24;8.10;99.90
20204;DHT22;10261;49.010;12.034;2023-01-15T05:05:27;8.20;99.90
20204;DHT22;10261;49.010;12.034;2023-01-15T05:06:29;8.00;99.90
20204;DHT22;10261;49.010;12.034;2023-01-15T05:07:32;8.00;99.90
20204;DHT22;10261;49.010;12.034;2023-01-15T05:08:35;8.00;99.90
20204;DHT22;10261;49.010;12.034;2023-01-15T05:09:38;8.00;99.90
20204;DHT22;10261;49.010;12.034;2023-01-15T05:10:40;8.10;99.90
20204;DHT22;10261;49.010;12.034;2023-01-15T05:11:43;8.00;99.90
20204;DHT22;10261;49.010;12.034;2023-01-15T05:12:46;7.90;99.90
20204;DHT22;10261;49.010;12.034;2023-01-15T05:13:48;7.90;99.90
20204;DHT22;10261;49.010;12.034;2023-01-15T05:14:51;7.90;99.90
20204;DHT22;10261;49.010;12.034;2023-01-15T05:15:53;7.90;99.90
20204;DHT22;10261;49.010;12.034;2023-01-15T05:16:56;7.90;99.90
20204;DHT22;10261;49.010;12.034;2023-01-15T05:17:59;7.90;99.90
20204;DHT22;10261;49.010;12.034;2023-01-15T05:19:02;7.90;99.90
20204;DHT22;10261;49.010;12.034;2023-01-15T05:20:10;7.90;99.90
20204;DHT22;10261;49.010;12.034;2023-01-15T05:21:13;7.90;99.90
20204;DHT22;10261;49.010;12.034;2023-01-15T05:22:17;8.00;99.90
20204;DHT22;10261;49.010;12.034;2023-01-15T05:23:19;7.90;99.90
20204;DHT22;10261;49.010;12.034;2023-01-15T05:24:22;7.90;99.90
20204;DHT22;10261;49.010;12.034;2023-01-15T05:25:25;7.90;99.90
20204;DHT22;10261;49.010;12.034;2023-01-15T05:26:29;7.80;99.90
20204;DHT22;10261;49.010;12.034;2023-01-15T05:27:32;7.90;99.90
20204;DHT22;10261;49.010;12.034;2023-01-15T05:28:34;7.90;99.90
20204;DHT22;10261;49.010;12.034;2023-01-15T05:29:37;7.80;99.90
20204;DHT22;10261;49.010;12.034;2023-01-15T05:30:40;7.80;99.90
20204;DHT22;10261;49.010;12.034;2023-01-15T05:31:42;7.80;99.90
20204;DHT22;10261;49.010;12.034;2023-01-15T05:32:46;7.80;99.90
20204;DHT22;10261;49.010;12.034;2023-01-15T05:33:48;7.80;99.90
20204;DHT22;10261;49.010;12.034;2023-01-15T05:34:52;7.90;99.90
20204;DHT22;10261;49.010;12.034;2023-01-15T05:36:00;7.80;99.90
20204;DHT22;10261;49.010;12.034;2023-01-15T05:37:03;7.90;99.90
20204;DHT22;10261;49.010;12.034;2023-01-15T05:38:05;7.90;99.90
20204;DHT22;10261;49.010;12.034;2023-01-15T05:39:08;7.90;99.90
20204;DHT22;10261;49.010;12.034;2023-01-15T05:40:11;7.90;99.90
20204;DHT22;10261;49.010;12.034;2023-01-15T05:41:16;7.80;99.90
20204;DHT22;10261;49.010;12.034;2023-01-15T05:42:37;7.80;99.90
20204;DHT22;10261;49.010;12.034;2023-01-15T05:43:40;7.90;99.90
20204;DHT22;10261;49.010;12.034;2023-01-15T05:44:41;7.90;99.90
20204;DHT22;10261;49.010;12.034;2023-01-15T05:45:44;7.90;99.90
20204;DHT22;10261;49.010;12.034;2023-01-15T05:46:48;7.80;99.90
20204;DHT22;10261;49.010;12.034;2023-01-15T05:47:52;7.90;99.90
20204;DHT22;10261;49.010;12.034;2023-01-15T05:48:57;7.90;99.90
20204;DHT22;10261;49.010;12.034;2023-01-15T05:50:00;7.90;99.90
20204;DHT22;10261;49.010;12.034;2023-01-15T05:51:06;7.80;99.90
20204;DHT22;10261;49.010;12.034;2023-01-15T05:52:08;7.80;99.90
20204;DHT22;10261;49.010;12.034;2023-01-15T05:53:11;7.80;99.90
20204;DHT22;10261;49.010;12.034;2023-01-15T05:54:15;7.80;99.90
20204;DHT22;10261;49.010;12.034;2023-01-15T05:55:18;7.90;99.90
20204;DHT22;10261;49.010;12.034;2023-01-15T05:56:20;7.80;99.90
20204;DHT22;10261;49.010;12.034;2023-01-15T05:57:23;7.80;99.90
20204;DHT22;10261;49.010;12.034;2023-01-15T05:58:25;7.80;99.90
20204;DHT22;10261;49.010;12.034;2023-01-15T05:59:29;7.90;99.90
20204;DHT22;10261;49.010;12.034;2023-01-15T06:00:32;7.80;99.90
20204;DHT22;10261;49.010;12.034;2023-01-15T06:01:35;7.70;99.90
20204;DHT22;10261;49.010;12.034;2023-01-15T06:02:38;7.70;99.90
20204;DHT22;10261;49.010;12.034;2023-01-15T06:03:41;7.80;99.90
20204;DHT22;10261;49.010;12.034;2023-01-15T06:04:43;7.80;99.90
20204;DHT22;10261;49.010;12.034;2023-01-15T06:05:49;7.70;99.90
20204;DHT22;10261;49.010;12.034;2023-01-15T06:06:54;7.80;99.90
20204;DHT22;10261;49.010;12.034;2023-01-15T06:07:57;7.80;99.90
20204;DHT22;10261;49.010;12.034;2023-01-15T06:09:02;7.80;99.90
20204;DHT22;10261;49.010;12.034;2023-01-15T06:10:06;7.80;99.90
20204;DHT22;10261;49.010;12.034;2023-01-15T06:11:08;7.80;99.90
20204;DHT22;10261;49.010;12.034;2023-01-15T06:12:11;7.80;99.90
20204;DHT22;10261;49.010;12.034;2023-01-15T06:13:14;7.80;99.90
20204;DHT22;10261;49.010;12.034;2023-01-15T06:14:17;7.80;99.90
20204;DHT22;10261;49.010;12.034;2023-01-15T06:15:19;7.80;99.90
20204;DHT22;10261;49.010;12.034;2023-01-15T06:16:22;7.80;99.90
20204;DHT22;10261;49.010;12.034;2023-01-15T06:17:25;7.80;99.90
20204;DHT22;10261;49.010;12.034;2023-01-15T06:18:28;7.80;99.90
20204;DHT22;10261;49.010;12.034;2023-01-15T06:19:30;7.80;99.90
20204;DHT22;10261;49.010;12.034;2023-01-15T06:20:34;7.80;99.90
20204;DHT22;10261;49.010;12.034;2023-01-15T06:21:36;7.70;99.90
20204;DHT22;10261;49.010;12.034;2023-01-15T06:22:40;7.70;99.90
20204;DHT22;10261;49.010;12.034;2023-01-15T06:23:43;7.70;99.90
20204;DHT22;10261;49.010;12.034;2023-01-15T06:24:46;7.80;99.90
20204;DHT22;10261;49.010;12.034;2023-01-15T06:25:48;7.80;99.90
20204;DHT22;10261;49.010;12.034;2023-01-15T06:26:51;7.80;99.90
20204;DHT22;10261;49.010;12.034;2023-01-15T06:27:54;7.80;99.90
20204;DHT22;10261;49.010;12.034;2023-01-15T06:28:56;7.80;99.90
20204;DHT22;10261;49.010;12.034;2023-01-15T06:29:59;7.90;99.90
20204;DHT22;10261;49.010;12.034;2023-01-15T06:31:03;7.80;99.90
20204;DHT22;10261;49.010;12.034;2023-01-15T06:32:07;7.90;99.90
20204;DHT22;10261;49.010;12.034;2023-01-15T06:33:09;7.80;99.90
20204;DHT22;10261;49.010;12.034;2023-01-15T06:34:12;7.90;99.90
20204;DHT22;10261;49.010;12.034;2023-01-15T06:35:14;7.80;99.90
20204;DHT22;10261;49.010;12.034;2023-01-15T06:36:19;7.80;99.90
20204;DHT22;10261;49.010;12.034;2023-01-15T06:37:22;7.90;99.90
20204;DHT22;10261;49.010;12.034;2023-01-15T06:38:26;7.90;99.90
20204;DHT22;10261;49.010;12.034;2023-01-15T06:39:28;7.90;99.90
20204;DHT22;10261;49.010;12.034;2023-01-15T06:40:31;7.90;99.90
20204;DHT22;10261;49.010;12.034;2023-01-15T06:41:33;7.90;99.90
20204;DHT22;10261;49.010;12.034;2023-01-15T06:42:59;7.90;99.90
20204;DHT22;10261;49.010;12.034;2023-01-15T06:44:19;7.90;99.90
20204;DHT22;10261;49.010;12.034;2023-01-15T06:45:40;7.80;99.90
20204;DHT22;10261;49.010;12.034;2023-01-15T06:47:02;7.90;99.90
20204;DHT22;10261;49.010;12.034;2023-01-15T06:48:23;7.90;99.90
20204;DHT22;10261;49.010;12.034;2023-01-15T06:49:26;7.90;99.90
20204;DHT22;10261;49.010;12.034;2023-01-15T06:50:29;7.90;99.90
20204;DHT22;10261;49.010;12.034;2023-01-15T06:51:31;7.90;99.90
20204;DHT22;10261;49.010;12.034;2023-01-15T06:52:33;7.90;99.90